ZKEOX NZWF-NZMF
Flight info
| Callsign | ZKEOX |
|---|---|
| Flight time | N/A |
| Altitude | 4000 |
| Route | GEBAY DCT TFILD DCT KSADE DCT YPONT DCT DPONT |
| Aircraft | C172/L-SFG/C |
Departure
| Time | 2026-04-11 05:02 |
|---|---|
| Airport | Wanaka Airport (NZWF) |
Arrival
| Time | N/A |
|---|---|
| Airport | Milford Sound Airport (NZMF) |
| Time | Latitude | Longitude | Altitude | Speed | Heading |
|---|---|---|---|---|---|
| 2026-04-11 04:53 | -44.72234 | 169.24470 | 1162 ft | 0 kts | 142° |
| 2026-04-11 04:58 | -44.72251 | 169.24493 | 1157 ft | 8 kts | 132° |
| 2026-04-11 04:59 | -44.72251 | 169.24515 | 1156 ft | 3 kts | 49° |
| 2026-04-11 04:59 | -44.72215 | 169.24570 | 1163 ft | 10 kts | 51° |
| 2026-04-11 04:59 | -44.72231 | 169.24654 | 1164 ft | 14 kts | 129° |
| 2026-04-11 04:59 | -44.72319 | 169.24772 | 1147 ft | 20 kts | 140° |
| 2026-04-11 05:00 | -44.72395 | 169.24849 | 1142 ft | 5 kts | 109° |
| 2026-04-11 05:00 | -44.72390 | 169.24861 | 1144 ft | 0 kts | 11° |
| 2026-04-11 05:00 | -44.72359 | 169.24823 | 1147 ft | 22 kts | 317° |
| 2026-04-11 05:01 | -44.72135 | 169.24535 | 1175 ft | 61 kts | 320° |
| 2026-04-11 05:01 | -44.71801 | 169.24053 | 1295 ft | 74 kts | 317° |
| 2026-04-11 05:01 | -44.71455 | 169.23479 | 1508 ft | 85 kts | 314° |
| 2026-04-11 05:01 | -44.71099 | 169.22746 | 1618 ft | 96 kts | 303° |
| 2026-04-11 05:02 | -44.70686 | 169.21968 | 1799 ft | 98 kts | 316° |
| 2026-04-11 05:02 | -44.70139 | 169.21507 | 1951 ft | 89 kts | 351° |
| 2026-04-11 05:02 | -44.69539 | 169.21312 | 2116 ft | 91 kts | 347° |
| 2026-04-11 05:02 | -44.68934 | 169.21101 | 2273 ft | 88 kts | 349° |
| 2026-04-11 05:03 | -44.68358 | 169.20882 | 2440 ft | 85 kts | 346° |
| 2026-04-11 05:03 | -44.67796 | 169.20690 | 2609 ft | 81 kts | 346° |
| 2026-04-11 05:03 | -44.67291 | 169.20365 | 2776 ft | 82 kts | 327° |
| 2026-04-11 05:03 | -44.66790 | 169.19905 | 2899 ft | 91 kts | 327° |
| 2026-04-11 05:04 | -44.66345 | 169.19230 | 3011 ft | 96 kts | 312° |
| 2026-04-11 05:04 | -44.65904 | 169.18489 | 3134 ft | 102 kts | 312° |
| 2026-04-11 05:04 | -44.65477 | 169.17683 | 3230 ft | 105 kts | 296° |
| 2026-04-11 05:04 | -44.65307 | 169.16669 | 3337 ft | 108 kts | 286° |
| 2026-04-11 05:05 | -44.65046 | 169.14590 | 3533 ft | 106 kts | 284° |
| 2026-04-11 05:05 | -44.64928 | 169.13581 | 3627 ft | 104 kts | 284° |
| 2026-04-11 05:05 | -44.64812 | 169.12590 | 3724 ft | 102 kts | 284° |
| 2026-04-11 05:06 | -44.64701 | 169.11617 | 3818 ft | 99 kts | 285° |
| 2026-04-11 05:06 | -44.64606 | 169.10717 | 3898 ft | 88 kts | 283° |
| 2026-04-11 05:06 | -44.64521 | 169.09810 | 3923 ft | 99 kts | 284° |
| 2026-04-11 05:06 | -44.64423 | 169.08814 | 3958 ft | 106 kts | 284° |
| 2026-04-11 05:07 | -44.64322 | 169.07793 | 3990 ft | 107 kts | 284° |
| 2026-04-11 05:07 | -44.64209 | 169.06749 | 4035 ft | 109 kts | 284° |
| 2026-04-11 05:07 | -44.64140 | 169.06177 | 4050 ft | 110 kts | 284° |
| 2026-04-11 05:07 | -44.64010 | 169.05121 | 4079 ft | 110 kts | 285° |
| 2026-04-11 05:08 | -44.63876 | 169.04065 | 4109 ft | 110 kts | 290° |
| 2026-04-11 05:08 | -44.63593 | 169.03075 | 4146 ft | 109 kts | 299° |
| 2026-04-11 05:08 | -44.63256 | 169.02124 | 4164 ft | 109 kts | 301° |
| 2026-04-11 05:08 | -44.62919 | 169.01177 | 4193 ft | 109 kts | 302° |
| 2026-04-11 05:09 | -44.62574 | 169.00219 | 4223 ft | 109 kts | 301° |
| 2026-04-11 05:09 | -44.62237 | 168.99275 | 4271 ft | 107 kts | 301° |
| 2026-04-11 05:09 | -44.61903 | 168.98331 | 4331 ft | 108 kts | 302° |
| 2026-04-11 05:09 | -44.61571 | 168.97385 | 4377 ft | 107 kts | 302° |
| 2026-04-11 05:10 | -44.61241 | 168.96441 | 4428 ft | 109 kts | 301° |
| 2026-04-11 05:10 | -44.60901 | 168.95491 | 4456 ft | 111 kts | 302° |
| 2026-04-11 05:10 | -44.60423 | 168.94676 | 4485 ft | 108 kts | 319° |
| 2026-04-11 05:10 | -44.59891 | 168.93929 | 4513 ft | 108 kts | 318° |
| 2026-04-11 05:11 | -44.59360 | 168.93182 | 4548 ft | 108 kts | 319° |
| 2026-04-11 05:11 | -44.58827 | 168.92436 | 4575 ft | 108 kts | 323° |
| 2026-04-11 05:11 | -44.58172 | 168.91987 | 4601 ft | 104 kts | 341° |
| 2026-04-11 05:11 | -44.57498 | 168.91621 | 4622 ft | 103 kts | 341° |
| 2026-04-11 05:12 | -44.56837 | 168.91256 | 4644 ft | 101 kts | 340° |
| 2026-04-11 05:12 | -44.56190 | 168.90893 | 4691 ft | 100 kts | 340° |
| 2026-04-11 05:12 | -44.55543 | 168.90532 | 4736 ft | 100 kts | 340° |
| 2026-04-11 05:12 | -44.54912 | 168.90115 | 4787 ft | 101 kts | 336° |
| 2026-04-11 05:13 | -44.54283 | 168.89682 | 4834 ft | 100 kts | 336° |
| 2026-04-11 05:13 | -44.53657 | 168.89251 | 4883 ft | 100 kts | 336° |
| 2026-04-11 05:13 | -44.53037 | 168.88826 | 4937 ft | 98 kts | 336° |
| 2026-04-11 05:13 | -44.52437 | 168.88417 | 5008 ft | 94 kts | 336° |
| 2026-04-11 05:14 | -44.51855 | 168.88013 | 5082 ft | 93 kts | 336° |
| 2026-04-11 05:14 | -44.51291 | 168.87616 | 5149 ft | 91 kts | 334° |
| 2026-04-11 05:14 | -44.50841 | 168.86985 | 5226 ft | 93 kts | 313° |
| 2026-04-11 05:14 | -44.50430 | 168.86286 | 5295 ft | 93 kts | 314° |
| 2026-04-11 05:15 | -44.50008 | 168.85579 | 5356 ft | 95 kts | 314° |
| 2026-04-11 05:15 | -44.49602 | 168.84865 | 5437 ft | 92 kts | 314° |
| 2026-04-11 05:15 | -44.49208 | 168.84173 | 5508 ft | 90 kts | 314° |
| 2026-04-11 05:15 | -44.48828 | 168.83495 | 5583 ft | 87 kts | 314° |
| 2026-04-11 05:16 | -44.48539 | 168.82757 | 5620 ft | 88 kts | 298° |
| 2026-04-11 05:16 | -44.48332 | 168.81958 | 5645 ft | 88 kts | 299° |
| 2026-04-11 05:16 | -44.48217 | 168.81100 | 5665 ft | 96 kts | 274° |
| 2026-04-11 05:16 | -44.48394 | 168.80174 | 5692 ft | 103 kts | 252° |
| 2026-04-11 05:17 | -44.48792 | 168.79306 | 5717 ft | 109 kts | 246° |
| 2026-04-11 05:17 | -44.49222 | 168.78432 | 5747 ft | 108 kts | 244° |
| 2026-04-11 05:17 | -44.49648 | 168.77574 | 5765 ft | 106 kts | 245° |
| 2026-04-11 05:17 | -44.50068 | 168.76760 | 5780 ft | 101 kts | 244° |
| 2026-04-11 05:18 | -44.50438 | 168.75943 | 5803 ft | 97 kts | 257° |
| 2026-04-11 05:18 | -44.50710 | 168.75083 | 5824 ft | 97 kts | 256° |
| 2026-04-11 05:18 | -44.50987 | 168.74225 | 5849 ft | 97 kts | 256° |
| 2026-04-11 05:18 | -44.51176 | 168.73657 | 5871 ft | 97 kts | 256° |
| 2026-04-11 05:19 | -44.51460 | 168.72773 | 5913 ft | 102 kts | 256° |
| 2026-04-11 05:19 | -44.51621 | 168.71518 | 5966 ft | 96 kts | 285° |
| 2026-04-11 05:19 | -44.51569 | 168.70882 | 5996 ft | 102 kts | 284° |
| 2026-04-11 05:19 | -44.51493 | 168.69873 | 6040 ft | 104 kts | 284° |
| 2026-04-11 05:20 | -44.51277 | 168.68970 | 6123 ft | 95 kts | 312° |
| 2026-04-11 05:20 | -44.50787 | 168.68008 | 6218 ft | 89 kts | 311° |
| 2026-04-11 05:20 | -44.50518 | 168.67590 | 6265 ft | 83 kts | 329° |
| 2026-04-11 05:20 | -44.50004 | 168.67280 | 6327 ft | 77 kts | 350° |
| 2026-04-11 05:21 | -44.49495 | 168.67192 | 6370 ft | 70 kts | 352° |
| 2026-04-11 05:21 | -44.49034 | 168.67115 | 6379 ft | 66 kts | 353° |
| 2026-04-11 05:21 | -44.48583 | 168.67032 | 6355 ft | 69 kts | 353° |
| 2026-04-11 05:21 | -44.48065 | 168.66950 | 6259 ft | 77 kts | 354° |
| 2026-04-11 05:22 | -44.47537 | 168.66882 | 6271 ft | 77 kts | 359° |
| 2026-04-11 05:22 | -44.47001 | 168.66922 | 6214 ft | 78 kts | 5° |
| 2026-04-11 05:22 | -44.46474 | 168.67082 | 6161 ft | 80 kts | 8° |
| 2026-04-11 05:22 | -44.45931 | 168.67306 | 6151 ft | 81 kts | 23° |
| 2026-04-11 05:23 | -44.45456 | 168.67684 | 6182 ft | 75 kts | 22° |
| 2026-04-11 05:23 | -44.45010 | 168.68060 | 6189 ft | 75 kts | 18° |
| 2026-04-11 05:23 | -44.44478 | 168.68246 | 6205 ft | 87 kts | 11° |
| 2026-04-11 05:23 | -44.43871 | 168.68443 | 6202 ft | 88 kts | 11° |
| 2026-04-11 05:24 | -44.43302 | 168.68615 | 6184 ft | 70 kts | 11° |
| 2026-04-11 05:24 | -44.42889 | 168.68698 | 6207 ft | 57 kts | 12° |
| 2026-04-11 05:24 | -44.42506 | 168.68725 | 6165 ft | 66 kts | 353° |
| 2026-04-11 05:24 | -44.42090 | 168.68520 | 6096 ft | 70 kts | 341° |
| 2026-04-11 05:25 | -44.41699 | 168.68104 | 6115 ft | 68 kts | 330° |
| 2026-04-11 05:25 | -44.41267 | 168.67672 | 5996 ft | 80 kts | 340° |
| 2026-04-11 05:25 | -44.40760 | 168.67290 | 5985 ft | 86 kts | 342° |
| 2026-04-11 05:25 | -44.40292 | 168.66986 | 5999 ft | 71 kts | 5° |
| 2026-04-11 05:26 | -44.39784 | 168.66990 | 5996 ft | 72 kts | 4° |
| 2026-04-11 05:26 | -44.39263 | 168.66994 | 6237 ft | 76 kts | 355° |
| 2026-04-11 05:26 | -44.38754 | 168.66775 | 6204 ft | 81 kts | 349° |
| 2026-04-11 05:26 | -44.38204 | 168.66507 | 6119 ft | 86 kts | 342° |
| 2026-04-11 05:27 | -44.37645 | 168.66214 | 5946 ft | 88 kts | 354° |
| 2026-04-11 05:27 | -44.37016 | 168.66122 | 5853 ft | 93 kts | 3° |
| 2026-04-11 05:27 | -44.36389 | 168.66115 | 5952 ft | 92 kts | 6° |
| 2026-04-11 05:27 | -44.35790 | 168.66390 | 5934 ft | 87 kts | 27° |
| 2026-04-11 05:28 | -44.35209 | 168.66860 | 5928 ft | 88 kts | 18° |
| 2026-04-11 05:28 | -44.34564 | 168.67048 | 5661 ft | 106 kts | 9° |
| 2026-04-11 05:28 | -44.33891 | 168.67141 | 5797 ft | 86 kts | 6° |
| 2026-04-11 05:28 | -44.33326 | 168.67237 | 5819 ft | 86 kts | 11° |
| 2026-04-11 05:29 | -44.32737 | 168.67357 | 5795 ft | 85 kts | 10° |
| 2026-04-11 05:29 | -44.32144 | 168.67487 | 5793 ft | 90 kts | 10° |
| 2026-04-11 05:29 | -44.31521 | 168.67631 | 5791 ft | 91 kts | 10° |
| 2026-04-11 05:29 | -44.30900 | 168.67764 | 5792 ft | 91 kts | 10° |
| 2026-04-11 05:30 | -44.30277 | 168.67897 | 5794 ft | 89 kts | 11° |
| 2026-04-11 05:30 | -44.29672 | 168.68019 | 5785 ft | 86 kts | 11° |
| 2026-04-11 05:30 | -44.29090 | 168.68132 | 5776 ft | 85 kts | 11° |
| 2026-04-11 05:30 | -44.28534 | 168.68081 | 5775 ft | 71 kts | 358° |
| 2026-04-11 05:31 | -44.28104 | 168.67951 | 5642 ft | 62 kts | 359° |
| 2026-04-11 05:31 | -44.27592 | 168.67868 | 5465 ft | 91 kts | 359° |
| 2026-04-11 05:31 | -44.26930 | 168.67779 | 5307 ft | 103 kts | 359° |
| 2026-04-11 05:31 | -44.26170 | 168.67683 | 5154 ft | 116 kts | 359° |
| 2026-04-11 05:32 | -44.25378 | 168.67600 | 5083 ft | 110 kts | 0° |
| 2026-04-11 05:32 | -44.24663 | 168.67512 | 5099 ft | 101 kts | 358° |
| 2026-04-11 05:32 | -44.23958 | 168.67420 | 5078 ft | 100 kts | 359° |
| 2026-04-11 05:32 | -44.23277 | 168.67312 | 5078 ft | 97 kts | 359° |
| 2026-04-11 05:33 | -44.22610 | 168.67213 | 5088 ft | 96 kts | 1° |
| 2026-04-11 05:33 | -44.21933 | 168.67115 | 5074 ft | 100 kts | 359° |
| 2026-04-11 05:33 | -44.21246 | 168.67004 | 5075 ft | 99 kts | 359° |
| 2026-04-11 05:33 | -44.20563 | 168.66884 | 5081 ft | 99 kts | 357° |
| 2026-04-11 05:34 | -44.19877 | 168.66757 | 5084 ft | 100 kts | 357° |
| 2026-04-11 05:34 | -44.19187 | 168.66623 | 5090 ft | 100 kts | 358° |
| 2026-04-11 05:34 | -44.18524 | 168.66485 | 5091 ft | 94 kts | 360° |
| 2026-04-11 05:34 | -44.17877 | 168.66328 | 5080 ft | 90 kts | 356° |
| 2026-04-11 05:35 | -44.17329 | 168.66145 | 5077 ft | 79 kts | 353° |
| 2026-04-11 05:35 | -44.16778 | 168.65956 | 5088 ft | 83 kts | 353° |
| 2026-04-11 05:35 | -44.16205 | 168.65742 | 5091 ft | 85 kts | 354° |
| 2026-04-11 05:35 | -44.15620 | 168.65538 | 5089 ft | 85 kts | 6° |
| 2026-04-11 05:36 | -44.15081 | 168.65830 | 5089 ft | 85 kts | 25° |
| 2026-04-11 05:36 | -44.14515 | 168.66162 | 5091 ft | 89 kts | 26° |
| 2026-04-11 05:36 | -44.14026 | 168.66591 | 5146 ft | 81 kts | 37° |
| 2026-04-11 05:36 | -44.13573 | 168.67091 | 5215 ft | 85 kts | 37° |
| 2026-04-11 05:37 | -44.13099 | 168.67593 | 5268 ft | 87 kts | 37° |
| 2026-04-11 05:37 | -44.12637 | 168.68092 | 5307 ft | 75 kts | 35° |
| 2026-04-11 05:37 | -44.12264 | 168.68544 | 5353 ft | 74 kts | 36° |
| 2026-04-11 05:37 | -44.11847 | 168.69038 | 5368 ft | 82 kts | 37° |
| 2026-04-11 05:38 | -44.11394 | 168.69542 | 5406 ft | 86 kts | 34° |
| 2026-04-11 05:38 | -44.10932 | 168.70108 | 5431 ft | 90 kts | 35° |
| 2026-04-11 05:38 | -44.10478 | 168.70705 | 5450 ft | 90 kts | 40° |
| 2026-04-11 05:38 | -44.10014 | 168.71288 | 5477 ft | 91 kts | 36° |
| 2026-04-11 05:39 | -44.09531 | 168.71874 | 5509 ft | 93 kts | 36° |
| 2026-04-11 05:39 | -44.09040 | 168.72477 | 5531 ft | 95 kts | 34° |
| 2026-04-11 05:39 | -44.08550 | 168.73098 | 5554 ft | 96 kts | 36° |
| 2026-04-11 05:39 | -44.08057 | 168.73713 | 5576 ft | 98 kts | 37° |
| 2026-04-11 05:40 | -44.07545 | 168.74336 | 5606 ft | 97 kts | 36° |
| 2026-04-11 05:40 | -44.07047 | 168.74965 | 5645 ft | 98 kts | 37° |
| 2026-04-11 05:40 | -44.06520 | 168.75602 | 5666 ft | 100 kts | 36° |
| 2026-04-11 05:40 | -44.06000 | 168.76231 | 5688 ft | 98 kts | 36° |
| 2026-04-11 05:41 | -44.05482 | 168.76839 | 5731 ft | 96 kts | 36° |
| 2026-04-11 05:41 | -44.04983 | 168.77445 | 5758 ft | 95 kts | 35° |
| 2026-04-11 05:41 | -44.04481 | 168.78039 | 5775 ft | 94 kts | 36° |
| 2026-04-11 05:41 | -44.03997 | 168.78625 | 5798 ft | 91 kts | 35° |
| 2026-04-11 05:42 | -44.03532 | 168.79203 | 5817 ft | 89 kts | 37° |
| 2026-04-11 05:42 | -44.03073 | 168.79775 | 5830 ft | 88 kts | 38° |
| 2026-04-11 05:42 | -44.02608 | 168.80332 | 5846 ft | 88 kts | 35° |
| 2026-04-11 05:42 | -44.02163 | 168.80888 | 5876 ft | 84 kts | 35° |
| 2026-04-11 05:43 | -44.01812 | 168.81545 | 5900 ft | 85 kts | 51° |
| 2026-04-11 05:43 | -44.01496 | 168.82236 | 5920 ft | 84 kts | 50° |
| 2026-04-11 05:43 | -44.01183 | 168.82903 | 5937 ft | 81 kts | 48° |
| 2026-04-11 05:43 | -44.00888 | 168.83559 | 5960 ft | 79 kts | 47° |
| 2026-04-11 05:44 | -44.00614 | 168.84212 | 5982 ft | 79 kts | 49° |
| 2026-04-11 05:44 | -44.00333 | 168.84860 | 5998 ft | 77 kts | 47° |
| 2026-04-11 05:44 | -44.00046 | 168.85493 | 6021 ft | 76 kts | 44° |
| 2026-04-11 05:44 | -43.99595 | 168.85739 | 6042 ft | 71 kts | 359° |
| 2026-04-11 05:45 | -43.99103 | 168.85712 | 6070 ft | 70 kts | 1° |
| 2026-04-11 05:45 | -43.98625 | 168.85648 | 6094 ft | 70 kts | 347° |
| 2026-04-11 05:45 | -43.98177 | 168.85388 | 6114 ft | 69 kts | 345° |
| 2026-04-11 05:45 | -43.97748 | 168.85072 | 6123 ft | 75 kts | 321° |
| 2026-04-11 05:46 | -43.97481 | 168.84430 | 6150 ft | 76 kts | 312° |
| 2026-04-11 05:46 | -43.97262 | 168.83756 | 6163 ft | 82 kts | 290° |
| 2026-04-11 05:46 | -43.97366 | 168.82931 | 6183 ft | 88 kts | 269° |
| 2026-04-11 05:46 | -43.97529 | 168.82108 | 6201 ft | 87 kts | 269° |
| 2026-04-11 05:47 | -43.97779 | 168.81339 | 6208 ft | 96 kts | 237° |
| 2026-04-11 05:47 | -43.98339 | 168.80793 | 6229 ft | 100 kts | 214° |
| 2026-04-11 05:47 | -43.98996 | 168.80509 | 6248 ft | 97 kts | 196° |
| 2026-04-11 05:47 | -43.99646 | 168.80282 | 6258 ft | 95 kts | 195° |
| 2026-04-11 05:48 | -44.00290 | 168.80068 | 6270 ft | 94 kts | 195° |
| 2026-04-11 05:48 | -44.00923 | 168.79872 | 6272 ft | 93 kts | 188° |
| 2026-04-11 05:48 | -44.01552 | 168.79715 | 6243 ft | 93 kts | 194° |
| 2026-04-11 05:48 | -44.02193 | 168.79304 | 6098 ft | 109 kts | 220° |
| 2026-04-11 05:49 | -44.02815 | 168.78664 | 6033 ft | 118 kts | 224° |
| 2026-04-11 05:49 | -44.03427 | 168.77851 | 5889 ft | 126 kts | 237° |
| 2026-04-11 05:49 | -44.03995 | 168.76878 | 5721 ft | 134 kts | 240° |
| 2026-04-11 05:49 | -44.04609 | 168.75856 | 5560 ft | 140 kts | 238° |
| 2026-04-11 05:50 | -44.05243 | 168.74780 | 5376 ft | 147 kts | 238° |
| 2026-04-11 05:50 | -44.05840 | 168.73625 | 5200 ft | 145 kts | 247° |
| 2026-04-11 05:50 | -44.06048 | 168.72319 | 5022 ft | 138 kts | 272° |
| 2026-04-11 05:50 | -44.06109 | 168.71018 | 4836 ft | 136 kts | 277° |
| 2026-04-11 05:51 | -44.06142 | 168.69701 | 4639 ft | 137 kts | 276° |
| 2026-04-11 05:51 | -44.05988 | 168.68377 | 4424 ft | 142 kts | 292° |
| 2026-04-11 05:51 | -44.05720 | 168.67027 | 4231 ft | 148 kts | 291° |
| 2026-04-11 05:51 | -44.05417 | 168.65676 | 4027 ft | 145 kts | 295° |
| 2026-04-11 05:52 | -44.04960 | 168.64450 | 3832 ft | 142 kts | 308° |
| 2026-04-11 05:52 | -44.04455 | 168.63241 | 3639 ft | 147 kts | 307° |
| 2026-04-11 05:52 | -44.03941 | 168.62007 | 3443 ft | 148 kts | 307° |
| 2026-04-11 05:52 | -44.03421 | 168.60769 | 3251 ft | 149 kts | 307° |
| 2026-04-11 05:53 | -44.02836 | 168.59668 | 3033 ft | 139 kts | 322° |
| 2026-04-11 05:53 | -44.02135 | 168.58773 | 2922 ft | 130 kts | 327° |
| 2026-04-11 05:53 | -44.01473 | 168.57935 | 2857 ft | 133 kts | 320° |
| 2026-04-11 05:53 | -44.00893 | 168.57029 | 3103 ft | 101 kts | 318° |
| 2026-04-11 05:54 | -44.00448 | 168.56204 | 3069 ft | 111 kts | 313° |
| 2026-04-11 05:54 | -44.00002 | 168.55384 | 3217 ft | 100 kts | 323° |
| 2026-04-11 05:54 | -43.99387 | 168.55081 | 3113 ft | 97 kts | 24° |
| 2026-04-11 05:54 | -43.98925 | 168.55669 | 3205 ft | 86 kts | 59° |
| 2026-04-11 05:55 | -43.98707 | 168.56488 | 3158 ft | 98 kts | 77° |
| 2026-04-11 05:55 | -43.98668 | 168.57416 | 3251 ft | 90 kts | 85° |
| 2026-04-11 05:55 | -43.98729 | 168.58263 | 3301 ft | 95 kts | 101° |
| 2026-04-11 05:55 | -43.98932 | 168.59130 | 3392 ft | 94 kts | 101° |
| 2026-04-11 05:56 | -43.98896 | 168.60007 | 3424 ft | 92 kts | 77° |
| 2026-04-11 05:56 | -43.98814 | 168.60862 | 3480 ft | 89 kts | 84° |
| 2026-04-11 05:56 | -43.98907 | 168.61697 | 3347 ft | 87 kts | 100° |
| 2026-04-11 05:56 | -43.99121 | 168.62521 | 3044 ft | 93 kts | 108° |
| 2026-04-11 05:57 | -43.99437 | 168.63289 | 2909 ft | 90 kts | 117° |
| 2026-04-11 05:57 | -43.99708 | 168.64078 | 2767 ft | 86 kts | 100° |
| 2026-04-11 05:57 | -43.99793 | 168.64910 | 2598 ft | 87 kts | 88° |
| 2026-04-11 05:57 | -43.99789 | 168.65704 | 2412 ft | 83 kts | 85° |
| 2026-04-11 05:58 | -43.99802 | 168.66544 | 2146 ft | 88 kts | 88° |
| 2026-04-11 05:58 | -43.99837 | 168.67362 | 1952 ft | 85 kts | 94° |
| 2026-04-11 05:58 | -43.99918 | 168.68199 | 1725 ft | 87 kts | 102° |
| 2026-04-11 05:58 | -44.00354 | 168.68627 | 1682 ft | 78 kts | 172° |
| 2026-04-11 05:59 | -44.00870 | 168.68379 | 1576 ft | 80 kts | 224° |
| 2026-04-11 05:59 | -44.01030 | 168.67647 | 1371 ft | 92 kts | 290° |
| 2026-04-11 05:59 | -44.00539 | 168.67069 | 1110 ft | 99 kts | 355° |
| 2026-04-11 05:59 | -43.99884 | 168.67401 | 1118 ft | 107 kts | 48° |
| 2026-04-11 06:00 | -43.99615 | 168.68355 | 1258 ft | 108 kts | 82° |
| 2026-04-11 06:00 | -43.99533 | 168.69347 | 1456 ft | 106 kts | 79° |
| 2026-04-11 06:00 | -43.99347 | 168.70388 | 1556 ft | 111 kts | 72° |
| 2026-04-11 06:00 | -43.99109 | 168.71437 | 1587 ft | 121 kts | 68° |
| 2026-04-11 06:01 | -43.98709 | 168.72445 | 1709 ft | 116 kts | 50° |
| 2026-04-11 06:01 | -43.98069 | 168.73137 | 1754 ft | 119 kts | 32° |
| 2026-04-11 06:01 | -43.97485 | 168.73915 | 1848 ft | 119 kts | 54° |
| 2026-04-11 06:01 | -43.97191 | 168.74980 | 1916 ft | 121 kts | 85° |
| 2026-04-11 06:02 | -43.97295 | 168.76181 | 1800 ft | 135 kts | 101° |
| 2026-04-11 06:02 | -43.97539 | 168.77406 | 1748 ft | 125 kts | 106° |
| 2026-04-11 06:02 | -43.97810 | 168.78497 | 1669 ft | 97 kts | 107° |
| 2026-04-11 06:02 | -43.97923 | 168.79423 | 1757 ft | 105 kts | 80° |
| 2026-04-11 06:03 | -43.97458 | 168.80313 | 1703 ft | 116 kts | 49° |
| 2026-04-11 06:03 | -43.96995 | 168.81224 | 1818 ft | 115 kts | 53° |
| 2026-04-11 06:03 | -43.96549 | 168.82104 | 2029 ft | 107 kts | 58° |
| 2026-04-11 06:03 | -43.96106 | 168.83013 | 2028 ft | 118 kts | 50° |
| 2026-04-11 06:04 | -43.95495 | 168.83721 | 2137 ft | 117 kts | 25° |
| 2026-04-11 06:04 | -43.94971 | 168.84004 | 2057 ft | 127 kts | 21° |
| 2026-04-11 06:04 | -43.93867 | 168.84619 | 1977 ft | 128 kts | 27° |
| 2026-04-11 06:04 | -43.93176 | 168.85356 | 1979 ft | 124 kts | 40° |
| 2026-04-11 06:05 | -43.92518 | 168.86123 | 1979 ft | 123 kts | 39° |
| 2026-04-11 06:05 | -43.92075 | 168.86638 | 1979 ft | 122 kts | 39° |
| 2026-04-11 06:05 | -43.91425 | 168.87393 | 1977 ft | 122 kts | 39° |
| 2026-04-11 06:05 | -43.90774 | 168.88148 | 1978 ft | 122 kts | 40° |
| 2026-04-11 06:06 | -43.89473 | 168.89657 | 1976 ft | 123 kts | 40° |
| 2026-04-11 06:06 | -43.88828 | 168.90404 | 1970 ft | 117 kts | 40° |
| 2026-04-11 06:06 | -43.88248 | 168.91089 | 1959 ft | 102 kts | 40° |
| 2026-04-11 06:07 | -43.87730 | 168.91688 | 1963 ft | 93 kts | 39° |
| 2026-04-11 06:07 | -43.87253 | 168.92240 | 1965 ft | 86 kts | 45° |
| 2026-04-11 06:07 | -43.86854 | 168.92861 | 1964 ft | 89 kts | 48° |
| 2026-04-11 06:07 | -43.86448 | 168.93614 | 1984 ft | 105 kts | 62° |
| 2026-04-11 06:08 | -43.86175 | 168.94598 | 1980 ft | 111 kts | 75° |
| 2026-04-11 06:08 | -43.86017 | 168.95644 | 1979 ft | 111 kts | 76° |
| 2026-04-11 06:08 | -43.85859 | 168.96692 | 1978 ft | 110 kts | 77° |
| 2026-04-11 06:08 | -43.85709 | 168.97709 | 1977 ft | 109 kts | 77° |
| 2026-04-11 06:09 | -43.85562 | 168.98734 | 1973 ft | 107 kts | 77° |
| 2026-04-11 06:09 | -43.85415 | 168.99741 | 1974 ft | 107 kts | 76° |
| 2026-04-11 06:09 | -43.85271 | 169.00750 | 1971 ft | 106 kts | 77° |
| 2026-04-11 06:09 | -43.85131 | 169.01743 | 1973 ft | 98 kts | 77° |
| 2026-04-11 06:10 | -43.85291 | 169.02462 | 1731 ft | 80 kts | 140° |
| 2026-04-11 06:10 | -43.85809 | 169.02423 | 1380 ft | 82 kts | 219° |
| 2026-04-11 06:10 | -43.86311 | 169.02095 | 1138 ft | 88 kts | 176° |
| 2026-04-11 06:10 | -43.86872 | 169.02414 | 1002 ft | 93 kts | 135° |
| 2026-04-11 06:11 | -43.87268 | 169.03117 | 853 ft | 93 kts | 134° |
| 2026-04-11 06:11 | -43.87782 | 169.03648 | 749 ft | 91 kts | 157° |
| 2026-04-11 06:11 | -43.87934 | 169.04284 | 774 ft | 81 kts | 52° |
| 2026-04-11 06:11 | -43.87411 | 169.04288 | 341 ft | 85 kts | 342° |
| 2026-04-11 06:12 | -43.86873 | 169.04145 | 47 ft | 70 kts | 0° |
| 2026-04-11 06:12 | -43.86511 | 169.04127 | 34 ft | 34 kts | 356° |
| 2026-04-11 06:12 | -43.86325 | 169.04117 | 33 ft | 24 kts | 0° |
| 2026-04-11 06:12 | -43.86207 | 169.04117 | 33 ft | 8 kts | 36° |
| 2026-04-11 06:13 | -43.86192 | 169.04135 | 33 ft | 0 kts | 41° |
| 2026-04-11 06:13 | -43.86191 | 169.04181 | 35 ft | 7 kts | 116° |
| 2026-04-11 06:13 | -43.86206 | 169.04250 | 34 ft | 8 kts | 95° |
| 2026-04-11 06:13 | -43.86220 | 169.04305 | 34 ft | 5 kts | 166° |
| 2026-04-11 06:14 | -43.86230 | 169.04292 | 31 ft | 0 kts | 265° |